createdAt,value
2022-08-08T00:00:59.844Z,16.40
2022-08-08T00:04:05.717Z,16.40
2022-08-08T00:07:12.669Z,16.40
2022-08-08T00:10:10.751Z,16.30
2022-08-08T00:13:20.842Z,16.30
2022-08-08T00:16:26.013Z,16.30
2022-08-08T00:19:20.590Z,16.30
2022-08-08T00:22:13.691Z,16.30
2022-08-08T00:25:06.062Z,16.20
2022-08-08T00:28:00.902Z,16.10
2022-08-08T00:31:00.725Z,16.10
2022-08-08T00:34:46.242Z,16.10
2022-08-08T00:37:47.461Z,16.00
2022-08-08T00:41:22.160Z,16.00
2022-08-08T00:45:00.678Z,15.90
2022-08-08T00:48:35.781Z,15.80
2022-08-08T00:52:02.179Z,15.80
2022-08-08T00:55:16.508Z,15.80
2022-08-08T00:58:54.509Z,15.80
2022-08-08T01:02:01.539Z,15.90
2022-08-08T01:05:41.960Z,15.80
2022-08-08T01:09:36.716Z,15.80
2022-08-08T01:13:23.111Z,15.80
2022-08-08T01:17:06.634Z,15.80
2022-08-08T01:20:39.770Z,15.80
2022-08-08T01:24:13.489Z,15.80
2022-08-08T01:27:43.480Z,15.80
2022-08-08T01:31:34.297Z,15.70
2022-08-08T01:34:46.065Z,15.70
2022-08-08T01:38:20.841Z,15.60
2022-08-08T01:41:27.845Z,15.60
2022-08-08T01:44:39.721Z,15.60
2022-08-08T01:48:16.743Z,15.50
2022-08-08T01:52:04.173Z,15.40
2022-08-08T01:55:27.164Z,15.30
2022-08-08T01:58:39.699Z,15.30
2022-08-08T02:02:00.702Z,15.20
2022-08-08T02:05:06.050Z,15.20
2022-08-08T02:08:08.664Z,15.20
2022-08-08T02:11:23.468Z,15.10
2022-08-08T02:14:20.373Z,15.10
2022-08-08T02:17:20.412Z,15.20
2022-08-08T02:21:00.786Z,16.80
2022-08-08T02:23:44.018Z,15.00
2022-08-08T02:26:37.565Z,15.00
2022-08-08T02:29:41.741Z,15.00
2022-08-08T02:33:06.917Z,14.90
2022-08-08T02:36:16.442Z,14.90
2022-08-08T02:39:41.910Z,15.00
2022-08-08T02:43:23.373Z,15.00
2022-08-08T02:46:31.179Z,15.00
2022-08-08T02:49:51.402Z,15.00
2022-08-08T02:53:01.039Z,15.10
2022-08-08T02:56:25.399Z,15.10
2022-08-08T02:59:58.525Z,15.10
2022-08-08T03:05:00.882Z,15.20
2022-08-08T03:07:24.551Z,16.60
2022-08-08T03:10:53.427Z,15.10
2022-08-08T03:16:02.087Z,15.10
2022-08-08T03:17:34.098Z,15.00
2022-08-08T03:20:27.883Z,15.00
2022-08-08T03:23:18.356Z,14.90
2022-08-08T03:26:07.425Z,14.80
2022-08-08T03:29:03.470Z,14.80
2022-08-08T03:32:09.672Z,14.70
2022-08-08T03:35:00.214Z,17.00
2022-08-08T03:38:54.723Z,14.70
2022-08-08T03:41:00.996Z,14.60
2022-08-08T03:44:08.428Z,14.50
2022-08-08T03:46:59.712Z,14.50
2022-08-08T03:50:03.126Z,14.50
2022-08-08T03:52:56.777Z,14.40
2022-08-08T03:55:57.586Z,14.30
2022-08-08T03:58:51.869Z,14.30
2022-08-08T04:02:02.396Z,14.20
2022-08-08T04:04:53.436Z,14.20
2022-08-08T04:07:42.850Z,14.10
2022-08-08T04:10:34.229Z,14.10
2022-08-08T04:13:25.929Z,14.10
2022-08-08T04:16:21.931Z,14.50
2022-08-08T04:19:27.417Z,14.20
2022-08-08T04:22:29.335Z,14.10
2022-08-08T04:25:19.169Z,14.10
2022-08-08T04:28:36.779Z,14.10
2022-08-08T04:31:57.281Z,14.20
2022-08-08T04:34:32.412Z,14.20
2022-08-08T04:37:32.845Z,14.30
2022-08-08T04:40:27.534Z,15.30
2022-08-08T04:43:17.859Z,14.30
2022-08-08T04:46:15.000Z,14.30
2022-08-08T04:49:06.428Z,14.30
2022-08-08T04:52:01.730Z,15.40
2022-08-08T04:54:52.986Z,14.50
2022-08-08T04:57:41.522Z,14.50
2022-08-08T05:00:31.395Z,14.60
2022-08-08T05:04:09.636Z,14.60
2022-08-08T05:06:29.387Z,14.60
2022-08-08T05:09:20.303Z,14.70
2022-08-08T05:12:09.512Z,14.80
2022-08-08T05:15:13.736Z,14.90
2022-08-08T05:18:03.383Z,15.00
2022-08-08T05:20:53.571Z,15.10
2022-08-08T05:23:46.032Z,15.30
2022-08-08T05:26:37.608Z,15.40
2022-08-08T05:29:29.195Z,15.50
2022-08-08T05:32:18.620Z,15.50
2022-08-08T05:35:09.563Z,15.60
2022-08-08T05:38:05.364Z,15.70
2022-08-08T05:41:18.844Z,15.80
2022-08-08T05:44:14.446Z,15.90
2022-08-08T05:47:06.009Z,15.90
2022-08-08T05:49:56.092Z,16.00
2022-08-08T05:52:49.246Z,16.00
2022-08-08T05:56:09.764Z,16.10
2022-08-08T05:59:03.820Z,16.10
2022-08-08T06:01:59.962Z,16.20
2022-08-08T06:04:55.625Z,16.30
2022-08-08T06:07:49.337Z,17.10
2022-08-08T06:10:41.193Z,16.40
2022-08-08T06:13:36.109Z,16.50
2022-08-08T06:16:37.690Z,16.60
2022-08-08T06:19:50.326Z,16.70
2022-08-08T06:22:42.275Z,16.70
2022-08-08T06:26:38.998Z,16.80
2022-08-08T06:28:54.190Z,16.90
2022-08-08T06:32:09.477Z,18.20
2022-08-08T06:35:30.646Z,17.00
2022-08-08T06:38:14.408Z,17.10
2022-08-08T06:41:13.486Z,17.20
2022-08-08T06:44:12.230Z,17.30
2022-08-08T06:47:16.062Z,17.60
2022-08-08T06:50:13.011Z,17.60
2022-08-08T06:53:16.973Z,17.80
2022-08-08T06:56:16.786Z,18.30
2022-08-08T06:59:12.050Z,18.70
2022-08-08T07:02:26.941Z,19.10
2022-08-08T07:05:20.796Z,19.50
2022-08-08T07:08:19.781Z,19.90
2022-08-08T07:11:22.313Z,20.20
2022-08-08T07:14:18.253Z,20.10
2022-08-08T07:17:19.793Z,20.40
2022-08-08T07:20:11.162Z,20.30
2022-08-08T07:23:05.375Z,20.50
2022-08-08T07:26:00.591Z,20.50
2022-08-08T07:28:50.858Z,20.60
2022-08-08T07:31:46.591Z,20.70
2022-08-08T07:34:48.351Z,20.90
2022-08-08T07:38:04.462Z,21.10
2022-08-08T07:41:23.389Z,21.30
2022-08-08T07:44:16.040Z,21.40
2022-08-08T07:47:38.328Z,21.50
2022-08-08T07:50:29.001Z,21.40
2022-08-08T07:53:52.436Z,21.40
2022-08-08T07:56:42.490Z,21.60
2022-08-08T07:59:37.679Z,21.70
2022-08-08T08:02:41.857Z,21.70
2022-08-08T08:05:40.127Z,21.70
2022-08-08T08:08:39.415Z,21.80
2022-08-08T08:11:51.510Z,23.30
2022-08-08T08:14:55.642Z,22.00
2022-08-08T08:17:49.350Z,22.20
2022-08-08T08:20:46.241Z,22.10
2022-08-08T08:23:41.082Z,22.10
2022-08-08T08:26:31.664Z,22.30
2022-08-08T08:29:22.012Z,22.50
2022-08-08T08:32:10.951Z,22.60
2022-08-08T08:35:03.907Z,22.50
2022-08-08T08:38:15.748Z,22.70
2022-08-08T08:41:03.316Z,22.80
2022-08-08T08:44:14.130Z,22.90
2022-08-08T08:47:08.122Z,22.90
2022-08-08T08:49:56.977Z,23.20
2022-08-08T08:52:59.542Z,23.30
2022-08-08T08:55:50.441Z,23.50
2022-08-08T08:58:46.820Z,23.50
2022-08-08T09:01:51.527Z,23.50
2022-08-08T09:05:00.120Z,23.40
2022-08-08T09:08:12.745Z,23.30
2022-08-08T09:11:01.915Z,23.20
2022-08-08T09:13:52.145Z,23.20
2022-08-08T09:16:43.293Z,23.60
2022-08-08T09:22:02.950Z,23.60
2022-08-08T09:22:42.369Z,23.60
2022-08-08T09:25:35.648Z,23.60
2022-08-08T09:28:41.548Z,23.90
2022-08-08T09:31:56.206Z,24.20
2022-08-08T09:34:52.559Z,24.10
2022-08-08T09:38:01.992Z,24.00
2022-08-08T09:41:01.915Z,23.90
2022-08-08T09:44:06.515Z,24.20
2022-08-08T09:48:02.355Z,24.60
2022-08-08T09:50:17.555Z,24.90
2022-08-08T09:53:26.636Z,24.90
2022-08-08T09:56:25.515Z,24.80
2022-08-08T10:00:02.354Z,24.80
2022-08-08T10:02:37.548Z,24.90
2022-08-08T10:05:31.110Z,25.00
2022-08-08T10:08:21.511Z,25.00
2022-08-08T10:12:22.351Z,24.80
2022-08-08T10:14:34.789Z,24.90
2022-08-08T10:17:56.330Z,25.10
2022-08-08T10:20:44.782Z,25.20
2022-08-08T10:23:55.945Z,24.90
2022-08-08T10:26:56.856Z,24.90
2022-08-08T10:29:58.316Z,25.00
2022-08-08T10:32:53.096Z,25.10
2022-08-08T10:36:08.566Z,25.30
2022-08-08T10:38:53.451Z,25.30
2022-08-08T10:42:13.162Z,25.30
2022-08-08T10:45:02.283Z,25.50
2022-08-08T10:47:56.238Z,25.60
2022-08-08T10:50:45.020Z,25.90
2022-08-08T10:53:56.821Z,25.80
2022-08-08T10:56:47.376Z,25.60
2022-08-08T10:59:39.585Z,25.60
2022-08-08T11:02:32.424Z,25.70
2022-08-08T11:05:23.676Z,25.60
2022-08-08T11:08:38.036Z,25.70
2022-08-08T11:12:06.317Z,25.60
2022-08-08T11:14:54.167Z,25.70
2022-08-08T11:17:58.934Z,25.50
2022-08-08T11:20:52.088Z,25.40
2022-08-08T11:23:43.264Z,25.30
2022-08-08T11:26:38.294Z,25.20
2022-08-08T11:30:04.236Z,25.10
2022-08-08T11:32:57.007Z,25.30
2022-08-08T11:35:45.990Z,25.20
2022-08-08T11:38:43.824Z,25.20
2022-08-08T11:41:45.299Z,25.30
2022-08-08T11:44:34.399Z,25.10
2022-08-08T11:47:24.202Z,24.70
2022-08-08T11:50:32.235Z,24.60
2022-08-08T11:53:24.224Z,24.60
2022-08-08T11:56:21.074Z,24.60
2022-08-08T11:59:11.079Z,24.80
2022-08-08T12:02:31.145Z,24.70
2022-08-08T12:05:14.806Z,24.90
2022-08-08T12:08:06.318Z,24.90
2022-08-08T12:11:00.199Z,25.00
2022-08-08T12:14:02.887Z,26.00
2022-08-08T12:16:53.355Z,25.00
2022-08-08T12:19:51.612Z,24.70
2022-08-08T12:22:52.521Z,24.60
2022-08-08T12:25:44.854Z,24.30
2022-08-08T12:28:45.385Z,24.40
2022-08-08T12:31:39.435Z,24.60
2022-08-08T12:34:43.876Z,24.70
2022-08-08T12:37:40.435Z,24.60
2022-08-08T12:40:54.384Z,24.40
2022-08-08T12:44:00.128Z,24.40
2022-08-08T12:47:01.102Z,24.60
2022-08-08T12:49:56.021Z,24.80
2022-08-08T12:52:55.732Z,25.00
2022-08-08T12:56:08.883Z,25.00
2022-08-08T12:59:14.506Z,25.20
2022-08-08T13:02:03.662Z,25.20
2022-08-08T13:04:53.176Z,25.20
2022-08-08T13:08:03.741Z,25.00
2022-08-08T13:10:55.650Z,25.10
2022-08-08T13:14:03.751Z,25.00
2022-08-08T13:16:52.248Z,24.80
2022-08-08T13:19:50.384Z,24.80
2022-08-08T13:22:59.281Z,24.60
2022-08-08T13:26:01.481Z,24.50
2022-08-08T13:29:09.317Z,24.70
2022-08-08T13:32:05.341Z,25.00
2022-08-08T13:34:58.906Z,25.00
2022-08-08T13:38:05.731Z,24.80
2022-08-08T13:40:56.288Z,24.60
2022-08-08T13:43:46.715Z,24.50
2022-08-08T13:46:35.430Z,24.40
2022-08-08T13:50:39.397Z,24.50
2022-08-08T13:52:47.693Z,24.50
2022-08-08T13:55:38.764Z,24.40
2022-08-08T13:58:29.089Z,24.40
2022-08-08T14:01:23.362Z,24.10
2022-08-08T14:04:34.021Z,24.10
2022-08-08T14:07:29.819Z,24.00
2022-08-08T14:10:32.536Z,23.70
2022-08-08T14:13:33.424Z,23.60
2022-08-08T14:16:22.705Z,23.70
2022-08-08T14:19:17.740Z,23.80
2022-08-08T14:22:22.178Z,23.80
2022-08-08T14:25:15.281Z,23.80
2022-08-08T14:28:10.223Z,23.70
2022-08-08T14:31:09.968Z,23.60
2022-08-08T14:33:59.742Z,23.50
2022-08-08T14:36:51.756Z,23.50
2022-08-08T14:39:48.564Z,23.60
2022-08-08T14:42:55.331Z,23.60
2022-08-08T14:46:02.210Z,23.20
2022-08-08T14:48:52.335Z,23.20
2022-08-08T14:51:51.538Z,23.20
2022-08-08T14:54:52.255Z,23.30
2022-08-08T14:58:06.397Z,23.30
2022-08-08T15:00:52.495Z,23.50
2022-08-08T15:03:45.028Z,23.60
2022-08-08T15:06:44.332Z,23.50
2022-08-08T15:09:33.844Z,23.50
2022-08-08T15:12:27.198Z,23.50
2022-08-08T15:15:18.905Z,23.60
2022-08-08T15:18:29.742Z,23.60
2022-08-08T15:21:18.443Z,23.60
2022-08-08T15:24:12.668Z,23.50
2022-08-08T15:27:11.973Z,23.40
2022-08-08T15:30:15.182Z,23.40
2022-08-08T15:33:03.669Z,23.50
2022-08-08T15:35:52.422Z,23.50
2022-08-08T15:38:49.519Z,23.50
2022-08-08T15:41:43.958Z,23.50
2022-08-08T15:44:34.457Z,23.40
2022-08-08T15:47:24.661Z,23.30
2022-08-08T15:50:20.717Z,23.30
2022-08-08T15:53:09.417Z,23.30
2022-08-08T15:55:59.961Z,23.40
2022-08-08T15:58:50.176Z,23.40
2022-08-08T16:01:40.942Z,23.40
2022-08-08T16:04:54.563Z,23.40
2022-08-08T16:07:51.516Z,23.30
2022-08-08T16:13:09.724Z,23.30
2022-08-08T16:13:53.356Z,23.20
2022-08-08T16:16:43.195Z,23.30
2022-08-08T16:19:59.581Z,23.30
2022-08-08T16:22:42.070Z,23.10
2022-08-08T16:25:45.799Z,23.10
2022-08-08T16:28:41.693Z,23.20
2022-08-08T16:31:30.354Z,23.20
2022-08-08T16:34:21.922Z,23.20
2022-08-08T16:37:13.415Z,23.30
2022-08-08T16:40:07.865Z,23.20
2022-08-08T16:43:00.706Z,23.20
2022-08-08T16:46:37.894Z,23.10
2022-08-08T16:48:57.526Z,23.10
2022-08-08T16:55:01.410Z,23.10
2022-08-08T16:55:22.598Z,23.20
2022-08-08T16:58:13.776Z,23.10
2022-08-08T17:01:06.401Z,23.20
2022-08-08T17:04:01.317Z,23.20
2022-08-08T17:06:52.401Z,23.20
2022-08-08T17:09:44.988Z,23.10
2022-08-08T17:12:34.689Z,23.10
2022-08-08T17:15:27.054Z,23.00
2022-08-08T17:18:35.395Z,23.10
2022-08-08T17:21:27.090Z,23.00
2022-08-08T17:24:26.996Z,23.10
2022-08-08T17:27:17.675Z,23.00
2022-08-08T17:30:08.508Z,23.00
2022-08-08T17:34:35.792Z,23.00
2022-08-08T17:36:11.279Z,22.90
2022-08-08T17:39:45.650Z,22.90
2022-08-08T17:42:19.751Z,22.80
2022-08-08T17:45:21.110Z,22.80
2022-08-08T17:48:14.700Z,22.80
2022-08-08T17:51:03.484Z,22.80
2022-08-08T17:53:57.619Z,22.70
2022-08-08T17:56:46.385Z,22.60
2022-08-08T17:59:34.760Z,22.60
2022-08-08T18:02:28.453Z,22.60
2022-08-08T18:05:22.274Z,22.50
2022-08-08T18:08:24.753Z,22.50
2022-08-08T18:11:20.128Z,22.50
2022-08-08T18:14:21.671Z,22.40
2022-08-08T18:17:17.382Z,22.30
2022-08-08T18:20:36.781Z,22.40
2022-08-08T18:23:27.526Z,22.20
2022-08-08T18:26:16.762Z,22.20
2022-08-08T18:29:08.326Z,22.10
2022-08-08T18:32:05.408Z,22.00
2022-08-08T18:34:56.487Z,22.00
2022-08-08T18:37:48.139Z,22.00
2022-08-08T18:40:37.126Z,21.90
2022-08-08T18:43:37.801Z,21.80
2022-08-08T18:46:56.350Z,21.70
2022-08-08T18:49:57.718Z,21.60
2022-08-08T18:52:51.932Z,21.60
2022-08-08T18:55:41.091Z,21.50
2022-08-08T18:58:32.499Z,21.40
2022-08-08T19:02:14.344Z,21.30
2022-08-08T19:04:29.811Z,21.30
2022-08-08T19:07:22.736Z,21.20
2022-08-08T19:10:14.422Z,21.10
2022-08-08T19:13:04.879Z,21.00
2022-08-08T19:15:59.277Z,21.00
2022-08-08T19:18:53.416Z,20.90
2022-08-08T19:21:50.159Z,20.90
2022-08-08T19:25:01.992Z,20.80
2022-08-08T19:27:56.482Z,20.70
2022-08-08T19:30:51.435Z,20.60
2022-08-08T19:34:04.858Z,20.60
2022-08-08T19:37:01.344Z,20.60
2022-08-08T19:39:51.013Z,20.60
2022-08-08T19:42:41.492Z,20.40
2022-08-08T19:45:59.499Z,20.30
2022-08-08T19:48:40.290Z,20.30
2022-08-08T19:51:34.612Z,20.20
2022-08-08T19:54:27.808Z,20.20
2022-08-08T19:57:16.385Z,20.10
2022-08-08T20:00:11.616Z,20.10
2022-08-08T20:04:00.932Z,20.00
2022-08-08T20:06:28.052Z,20.00
2022-08-08T20:09:17.301Z,20.00
2022-08-08T20:12:11.702Z,19.90
2022-08-08T20:15:02.588Z,19.90
2022-08-08T20:18:04.726Z,19.80
2022-08-08T20:21:05.633Z,19.80
2022-08-08T20:23:57.854Z,19.70
2022-08-08T20:26:47.275Z,19.60
2022-08-08T20:29:45.498Z,19.70
2022-08-08T20:32:44.651Z,19.60
2022-08-08T20:35:59.480Z,19.50
2022-08-08T20:38:45.485Z,19.50
2022-08-08T20:41:38.852Z,19.50
2022-08-08T20:44:29.968Z,19.50
2022-08-08T20:47:36.281Z,19.40
2022-08-08T20:50:30.513Z,19.70
2022-08-08T20:53:59.584Z,19.30
2022-08-08T20:56:34.932Z,19.30
2022-08-08T20:59:24.870Z,19.20
2022-08-08T21:02:19.569Z,19.10
2022-08-08T21:05:13.889Z,19.10
2022-08-08T21:08:37.082Z,19.10
2022-08-08T21:11:14.081Z,19.10
2022-08-08T21:14:06.727Z,19.30
2022-08-08T21:16:56.221Z,19.00
2022-08-08T21:19:47.257Z,19.00
2022-08-08T21:22:36.306Z,18.90
2022-08-08T21:25:26.389Z,18.90
2022-08-08T21:28:16.342Z,18.80
2022-08-08T21:31:22.706Z,18.80
2022-08-08T21:34:18.469Z,18.70
2022-08-08T21:37:16.376Z,18.70
2022-08-08T21:40:08.702Z,18.70
2022-08-08T21:42:59.921Z,18.60
2022-08-08T21:48:08.059Z,18.60
2022-08-08T21:48:58.538Z,18.60
2022-08-08T21:54:32.215Z,18.60
2022-08-08T21:55:03.030Z,18.50
2022-08-08T21:58:05.772Z,18.40
2022-08-08T22:01:04.118Z,18.50
2022-08-08T22:03:52.916Z,18.30
2022-08-08T22:06:43.001Z,18.30
2022-08-08T22:09:37.598Z,18.30
2022-08-08T22:12:32.060Z,18.30
2022-08-08T22:15:20.411Z,18.20
2022-08-08T22:18:12.270Z,18.20
2022-08-08T22:21:13.802Z,18.20
2022-08-08T22:24:06.120Z,18.20
2022-08-08T22:27:01.501Z,18.20
2022-08-08T22:29:59.717Z,18.20
2022-08-08T22:32:51.023Z,18.10
2022-08-08T22:36:04.719Z,18.00
2022-08-08T22:38:49.062Z,18.00
2022-08-08T22:41:39.236Z,18.00
2022-08-08T22:44:27.688Z,17.90
2022-08-08T22:47:21.200Z,17.90
2022-08-08T22:50:27.264Z,17.80
2022-08-08T22:54:32.153Z,17.80
2022-08-08T22:56:25.329Z,17.80
2022-08-08T22:59:18.433Z,17.70
2022-08-08T23:02:13.079Z,17.70
2022-08-08T23:05:05.287Z,17.70
2022-08-08T23:07:58.055Z,17.70
2022-08-08T23:10:52.611Z,17.60
2022-08-08T23:13:42.259Z,18.30
2022-08-08T23:16:47.171Z,17.60
2022-08-08T23:19:38.074Z,17.50
2022-08-08T23:22:26.461Z,17.50
2022-08-08T23:25:18.344Z,17.30
2022-08-08T23:28:07.366Z,17.30
2022-08-08T23:30:56.035Z,17.40
2022-08-08T23:34:17.630Z,17.40
2022-08-08T23:36:57.793Z,17.40
2022-08-08T23:39:55.035Z,17.40
2022-08-08T23:42:46.086Z,17.30
2022-08-08T23:49:04.764Z,17.20
2022-08-08T23:49:07.124Z,17.20
2022-08-08T23:52:06.371Z,17.20
2022-08-08T23:55:07.726Z,17.10
2022-08-08T23:58:03.290Z,17.10
